createdAt,value
2023-03-24T00:00:11.203Z,7.38
2023-03-24T00:02:42.054Z,6.28
2023-03-24T00:05:14.526Z,7.53
2023-03-24T00:07:42.434Z,8.45
2023-03-24T00:10:12.900Z,12.80
2023-03-24T00:12:42.631Z,7.10
2023-03-24T00:15:19.071Z,7.85
2023-03-24T00:17:50.389Z,10.82
2023-03-24T00:20:19.930Z,9.05
2023-03-24T00:22:56.823Z,9.63
2023-03-24T00:25:29.625Z,6.43
2023-03-24T00:27:57.583Z,6.95
2023-03-24T00:30:26.078Z,7.50
2023-03-24T00:32:53.896Z,11.23
2023-03-24T00:35:21.937Z,7.20
2023-03-24T00:37:51.982Z,6.43
2023-03-24T00:40:20.943Z,7.78
2023-03-24T00:42:49.223Z,10.15
2023-03-24T00:45:23.045Z,7.68
2023-03-24T00:47:54.471Z,5.90
2023-03-24T00:50:27.121Z,7.53
2023-03-24T00:52:55.530Z,6.60
2023-03-24T00:55:23.064Z,5.97
2023-03-24T00:57:51.258Z,7.65
2023-03-24T01:00:21.506Z,7.38
2023-03-24T01:02:53.672Z,9.93
2023-03-24T01:05:22.310Z,7.32
2023-03-24T01:07:52.326Z,6.35
2023-03-24T01:10:21.744Z,8.60
2023-03-24T01:12:49.209Z,7.18
2023-03-24T01:15:18.699Z,6.80
2023-03-24T01:17:48.689Z,6.68
2023-03-24T01:20:16.474Z,6.15
2023-03-24T01:22:46.176Z,7.32
2023-03-24T01:25:16.882Z,8.88
2023-03-24T01:27:45.054Z,7.80
2023-03-24T01:30:14.116Z,8.52
2023-03-24T01:32:41.832Z,9.32
2023-03-24T01:35:09.401Z,6.18
2023-03-24T01:37:36.902Z,8.93
2023-03-24T01:40:09.035Z,7.97
2023-03-24T01:42:36.848Z,5.82
2023-03-24T01:45:35.535Z,5.60
2023-03-24T01:48:03.067Z,7.43
2023-03-24T01:50:30.606Z,11.20
2023-03-24T01:52:58.493Z,7.75
2023-03-24T01:55:25.997Z,10.18
2023-03-24T01:57:56.493Z,6.90
2023-03-24T02:00:28.519Z,6.65
2023-03-24T02:03:34.180Z,7.07
2023-03-24T02:06:02.622Z,10.15
2023-03-24T02:08:38.908Z,13.57
2023-03-24T02:11:06.487Z,10.50
2023-03-24T02:13:43.059Z,5.85
2023-03-24T02:16:30.880Z,6.82
2023-03-24T02:19:39.361Z,10.55
2023-03-24T02:22:26.915Z,6.30
2023-03-24T02:25:17.188Z,7.20
2023-03-24T02:27:55.167Z,8.15
2023-03-24T02:30:52.968Z,7.68
2023-03-24T02:33:39.399Z,12.05
2023-03-24T02:36:12.281Z,10.18
2023-03-24T02:39:10.813Z,7.97
2023-03-24T02:42:15.914Z,6.95
2023-03-24T02:45:01.521Z,5.85
2023-03-24T02:47:35.929Z,6.20
2023-03-24T02:50:18.483Z,7.88
2023-03-24T02:52:48.984Z,7.50
2023-03-24T02:55:25.384Z,5.85
2023-03-24T02:58:01.663Z,8.55
2023-03-24T03:00:49.145Z,8.52
2023-03-24T03:03:41.491Z,8.80
2023-03-24T03:06:14.506Z,5.15
2023-03-24T03:08:41.936Z,7.65
2023-03-24T03:11:12.300Z,6.75
2023-03-24T03:14:04.485Z,6.15
2023-03-24T03:16:43.348Z,7.90
2023-03-24T03:19:22.354Z,8.45
2023-03-24T03:21:50.570Z,12.68
2023-03-24T03:24:27.029Z,8.25
2023-03-24T03:27:03.095Z,6.95
2023-03-24T03:29:34.146Z,6.95
2023-03-24T03:32:08.076Z,5.63
2023-03-24T03:34:48.440Z,5.70
2023-03-24T03:37:36.474Z,7.38
2023-03-24T03:40:09.728Z,9.68
2023-03-24T03:42:39.845Z,8.43
2023-03-24T03:45:10.716Z,8.50
2023-03-24T03:47:39.370Z,6.38
2023-03-24T03:50:10.812Z,6.25
2023-03-24T03:52:38.745Z,7.18
2023-03-24T03:55:06.888Z,7.28
2023-03-24T03:57:34.713Z,6.45
2023-03-24T04:00:24.138Z,6.10
2023-03-24T04:03:40.046Z,6.65
2023-03-24T04:06:30.881Z,11.40
2023-03-24T04:09:24.295Z,7.85
2023-03-24T04:12:18.190Z,8.38
2023-03-24T04:15:42.545Z,10.07
2023-03-24T04:18:31.800Z,6.82
2023-03-24T04:21:33.393Z,8.82
2023-03-24T04:24:36.375Z,8.48
2023-03-24T04:27:28.124Z,5.78
2023-03-24T04:30:17.819Z,10.13
2023-03-24T04:32:58.591Z,6.35
2023-03-24T04:35:40.571Z,7.65
2023-03-24T04:41:07.774Z,7.47
2023-03-24T04:43:38.304Z,11.57
2023-03-24T04:46:09.538Z,9.48
2023-03-24T04:48:50.798Z,5.78
2023-03-24T04:51:28.756Z,8.98
2023-03-24T04:54:16.315Z,7.35
2023-03-24T04:56:53.796Z,10.18
2023-03-24T04:59:34.556Z,14.07
2023-03-24T05:02:04.196Z,7.20
2023-03-24T05:04:37.351Z,8.45
2023-03-24T05:07:15.530Z,10.43
2023-03-24T05:09:44.153Z,9.52
2023-03-24T05:12:12.993Z,8.13
2023-03-24T05:15:04.143Z,10.50
2023-03-24T05:17:32.537Z,10.50
2023-03-24T05:19:59.856Z,10.77
2023-03-24T05:22:27.453Z,11.32
2023-03-24T05:24:54.841Z,14.63
2023-03-24T05:27:22.235Z,10.77
2023-03-24T05:29:49.616Z,10.05
2023-03-24T05:32:22.666Z,10.32
2023-03-24T05:34:49.983Z,13.10
2023-03-24T05:37:23.775Z,9.93
2023-03-24T05:39:54.865Z,6.40
2023-03-24T05:42:39.218Z,7.85
2023-03-24T05:45:07.310Z,6.65
2023-03-24T05:47:34.801Z,6.85
2023-03-24T05:50:02.239Z,7.40
2023-03-24T05:52:31.652Z,8.50
2023-03-24T05:55:12.140Z,7.95
2023-03-24T05:57:40.637Z,7.53
2023-03-24T06:00:40.796Z,9.23
2023-03-24T06:03:17.340Z,12.07
2023-03-24T06:05:51.304Z,7.13
2023-03-24T06:08:18.780Z,7.57
2023-03-24T06:10:46.135Z,11.32
2023-03-24T06:13:13.588Z,9.73
2023-03-24T06:15:47.927Z,8.43
2023-03-24T06:18:34.133Z,10.48
2023-03-24T06:21:08.212Z,8.52
2023-03-24T06:23:36.159Z,8.00
2023-03-24T06:26:11.674Z,8.55
2023-03-24T06:28:58.731Z,12.38
2023-03-24T06:31:30.823Z,16.20
2023-03-24T06:33:58.237Z,15.80
2023-03-24T06:36:25.943Z,14.07
2023-03-24T06:38:54.106Z,11.43
2023-03-24T06:41:22.706Z,10.40
2023-03-24T06:43:54.757Z,13.00
2023-03-24T06:46:22.193Z,14.07
2023-03-24T06:48:49.724Z,17.60
2023-03-24T06:51:17.638Z,13.05
2023-03-24T06:53:46.839Z,15.00
2023-03-24T06:56:19.970Z,12.93
2023-03-24T06:58:52.654Z,10.80
2023-03-24T07:01:48.015Z,15.05
2023-03-24T07:04:25.717Z,10.65
2023-03-24T07:07:25.900Z,10.82
2023-03-24T07:09:58.482Z,15.75
2023-03-24T07:12:25.898Z,13.63
2023-03-24T07:14:53.305Z,12.77
2023-03-24T07:17:21.018Z,11.95
2023-03-24T07:20:15.978Z,18.88
2023-03-24T07:22:50.827Z,14.02
2023-03-24T07:25:26.920Z,17.02
2023-03-24T07:30:39.891Z,12.55
2023-03-24T07:33:12.555Z,14.68
2023-03-24T07:35:41.926Z,12.77
2023-03-24T07:38:10.567Z,13.73
2023-03-24T07:40:38.443Z,18.25
2023-03-24T07:43:06.620Z,15.48
2023-03-24T07:45:47.435Z,15.98
2023-03-24T07:48:15.432Z,16.85
2023-03-24T07:50:43.010Z,15.45
2023-03-24T07:53:36.208Z,14.95
2023-03-24T07:56:04.104Z,17.38
2023-03-24T07:58:31.959Z,19.02
2023-03-24T08:01:09.855Z,12.65
2023-03-24T08:03:43.017Z,15.77
2023-03-24T08:06:16.503Z,18.20
2023-03-24T08:08:47.704Z,9.52
2023-03-24T08:11:15.009Z,9.70
2023-03-24T08:13:42.583Z,13.20
2023-03-24T08:16:10.032Z,10.57
2023-03-24T08:18:38.213Z,14.82
2023-03-24T08:21:05.977Z,16.20
2023-03-24T08:23:33.332Z,9.50
2023-03-24T08:26:01.282Z,10.60
2023-03-24T08:28:28.619Z,10.07
2023-03-24T08:30:56.098Z,9.35
2023-03-24T08:33:23.516Z,6.35
2023-03-24T08:35:57.555Z,6.90
2023-03-24T08:38:30.722Z,9.77
2023-03-24T08:41:02.749Z,8.38
2023-03-24T08:43:31.249Z,8.63
2023-03-24T08:45:58.893Z,8.25
2023-03-24T08:48:26.385Z,8.60
2023-03-24T08:50:53.884Z,5.15
2023-03-24T08:53:21.655Z,5.53
2023-03-24T08:55:49.289Z,7.88
2023-03-24T08:58:18.236Z,10.10
2023-03-24T09:00:46.190Z,9.05
2023-03-24T09:03:18.089Z,8.40
2023-03-24T09:05:46.585Z,10.10
2023-03-24T09:08:14.804Z,7.97
2023-03-24T09:10:42.545Z,9.20
2023-03-24T09:13:10.044Z,5.78
2023-03-24T09:15:37.827Z,6.63
2023-03-24T09:18:05.474Z,8.88
2023-03-24T09:20:32.794Z,5.88
2023-03-24T09:23:00.181Z,6.28
2023-03-24T09:25:27.491Z,5.72
2023-03-24T09:27:56.519Z,6.30
2023-03-24T09:30:23.909Z,6.80
2023-03-24T09:32:51.598Z,9.00
2023-03-24T09:35:19.052Z,6.72
2023-03-24T09:37:46.702Z,7.90
2023-03-24T09:40:23.546Z,5.70
2023-03-24T09:43:00.559Z,3.78
2023-03-24T09:45:28.341Z,7.35
2023-03-24T09:48:02.046Z,6.30
2023-03-24T09:50:54.920Z,4.82
2023-03-24T09:53:34.679Z,5.07
2023-03-24T09:56:09.105Z,6.50
2023-03-24T10:01:03.910Z,4.15
2023-03-24T10:03:31.402Z,8.85
2023-03-24T10:06:23.071Z,6.15
2023-03-24T10:09:06.578Z,4.68
2023-03-24T10:11:46.374Z,5.85
2023-03-24T10:14:23.237Z,7.82
2023-03-24T10:17:11.155Z,6.80
2023-03-24T10:19:59.925Z,5.68
2023-03-24T10:22:39.525Z,7.38
2023-03-24T10:25:39.741Z,8.73
2023-03-24T10:28:24.227Z,7.95
2023-03-24T10:30:51.703Z,7.47
2023-03-24T10:33:19.033Z,6.88
2023-03-24T10:36:07.741Z,6.13
2023-03-24T10:38:35.682Z,7.10
2023-03-24T10:41:03.118Z,5.45
2023-03-24T10:43:30.464Z,6.93
2023-03-24T10:45:58.114Z,4.55
2023-03-24T10:48:41.996Z,6.38
2023-03-24T10:51:26.611Z,7.23
2023-03-24T10:54:16.007Z,6.32
2023-03-24T10:56:46.176Z,6.05
2023-03-24T10:59:25.573Z,6.45
2023-03-24T11:01:59.790Z,7.00
2023-03-24T11:04:27.615Z,7.00
2023-03-24T11:07:06.813Z,5.07
2023-03-24T11:09:58.107Z,8.00
2023-03-24T11:12:27.435Z,7.38
2023-03-24T11:15:21.874Z,3.75
2023-03-24T11:20:38.602Z,6.20
2023-03-24T11:23:18.270Z,3.97
2023-03-24T11:26:15.552Z,4.55
2023-03-24T11:28:47.565Z,5.30
2023-03-24T11:31:30.929Z,5.78
2023-03-24T11:34:03.601Z,4.68
2023-03-24T11:36:31.091Z,5.63
2023-03-24T11:39:22.822Z,7.40
2023-03-24T11:42:26.649Z,3.92
2023-03-24T11:44:55.364Z,6.53
2023-03-24T11:47:24.173Z,7.97
2023-03-24T11:49:53.283Z,4.55
2023-03-24T11:52:26.568Z,4.57
2023-03-24T11:54:53.948Z,4.38
2023-03-24T11:57:34.964Z,6.75
2023-03-24T12:00:09.260Z,5.28
2023-03-24T12:02:43.903Z,4.10
2023-03-24T12:05:28.881Z,6.25
2023-03-24T12:08:01.296Z,3.67
2023-03-24T12:10:31.708Z,4.78
2023-03-24T12:13:53.116Z,5.65
2023-03-24T12:16:44.726Z,5.43
2023-03-24T12:19:26.106Z,4.22
2023-03-24T12:22:12.119Z,4.30
2023-03-24T12:24:44.929Z,7.68
2023-03-24T12:27:52.392Z,2.58
2023-03-24T12:31:12.927Z,6.30
2023-03-24T12:33:51.469Z,4.03
2023-03-24T12:36:24.612Z,2.60
2023-03-24T12:39:11.676Z,3.13
2023-03-24T12:41:45.253Z,5.93
2023-03-24T12:44:33.904Z,5.83
2023-03-24T12:47:39.321Z,3.50
2023-03-24T12:50:39.179Z,5.35
2023-03-24T12:53:16.290Z,4.07
2023-03-24T12:56:11.030Z,3.92
2023-03-24T12:58:41.746Z,2.15
2023-03-24T13:01:15.185Z,4.50
2023-03-24T13:03:48.703Z,2.08
2023-03-24T13:06:32.344Z,5.00
2023-03-24T13:09:05.223Z,2.70
2023-03-24T13:11:38.475Z,4.10
2023-03-24T13:14:09.293Z,2.80
2023-03-24T13:16:36.912Z,5.15
2023-03-24T13:19:04.320Z,3.83
2023-03-24T13:21:35.373Z,2.60
2023-03-24T13:24:09.979Z,1.95
2023-03-24T13:26:39.464Z,3.47
2023-03-24T13:29:42.000Z,3.20
2023-03-24T13:32:24.346Z,2.40
2023-03-24T13:34:57.959Z,3.35
2023-03-24T13:38:16.332Z,2.78
2023-03-24T13:40:44.016Z,4.00
2023-03-24T13:43:21.620Z,3.08
2023-03-24T13:45:53.180Z,4.93
2023-03-24T13:48:26.754Z,2.70
2023-03-24T13:51:00.447Z,3.97
2023-03-24T13:53:37.391Z,2.20
2023-03-24T13:56:05.859Z,2.83
2023-03-24T13:59:11.506Z,2.08
2023-03-24T14:01:43.988Z,2.00
2023-03-24T14:04:28.545Z,3.80
2023-03-24T14:06:59.319Z,2.97
2023-03-24T14:09:28.412Z,2.35
2023-03-24T14:11:55.717Z,2.22
2023-03-24T14:14:26.652Z,2.08
2023-03-24T14:17:06.461Z,2.08
2023-03-24T14:19:45.417Z,9.38
2023-03-24T14:22:23.574Z,5.07
2023-03-24T14:25:02.132Z,2.47
2023-03-24T14:27:42.494Z,3.38
2023-03-24T14:30:26.600Z,3.53
2023-03-24T14:33:00.802Z,3.17
2023-03-24T14:35:34.069Z,1.92
2023-03-24T14:38:24.323Z,3.70
2023-03-24T14:40:58.833Z,1.60
2023-03-24T14:46:03.540Z,2.95
2023-03-24T14:48:38.050Z,2.92
2023-03-24T14:51:36.924Z,3.13
2023-03-24T14:54:06.802Z,1.50
2023-03-24T14:56:37.426Z,5.18
2023-03-24T14:59:09.380Z,1.75
2023-03-24T15:01:37.266Z,5.10
2023-03-24T15:04:08.440Z,2.85
2023-03-24T15:06:48.294Z,2.80
2023-03-24T15:09:17.154Z,3.78
2023-03-24T15:11:45.661Z,3.55
2023-03-24T15:14:21.132Z,2.90
2023-03-24T15:17:03.576Z,2.65
2023-03-24T15:19:30.958Z,2.35
2023-03-24T15:22:03.383Z,6.30
2023-03-24T15:24:35.756Z,5.18
2023-03-24T15:27:08.998Z,2.67
2023-03-24T15:29:37.663Z,3.80
2023-03-24T15:32:05.453Z,2.08
2023-03-24T15:34:42.873Z,4.88
2023-03-24T15:37:23.538Z,2.50
2023-03-24T15:40:01.690Z,4.72
2023-03-24T15:42:44.181Z,5.00
2023-03-24T15:45:24.115Z,2.30
2023-03-24T15:47:52.228Z,4.80
2023-03-24T15:50:36.497Z,2.03
2023-03-24T15:53:19.149Z,2.55
2023-03-24T15:55:46.539Z,4.63
2023-03-24T15:58:21.900Z,1.67
2023-03-24T16:00:51.047Z,2.47
2023-03-24T16:03:18.793Z,1.65
2023-03-24T16:05:51.532Z,1.65
2023-03-24T16:08:29.119Z,2.88
2023-03-24T16:11:05.097Z,4.10
2023-03-24T16:13:32.437Z,2.47
2023-03-24T16:16:14.883Z,6.18
2023-03-24T16:18:44.396Z,4.28
2023-03-24T16:21:16.990Z,4.05
2023-03-24T16:23:45.130Z,3.65
2023-03-24T16:26:32.950Z,2.65
2023-03-24T16:29:21.832Z,2.60
2023-03-24T16:31:53.741Z,3.30
2023-03-24T16:34:21.672Z,4.78
2023-03-24T16:36:53.008Z,4.18
2023-03-24T16:39:27.786Z,4.85
2023-03-24T16:41:55.425Z,2.80
2023-03-24T16:44:23.240Z,6.20
2023-03-24T16:46:51.950Z,3.00
2023-03-24T16:49:19.817Z,6.28
2023-03-24T16:51:47.473Z,5.00
2023-03-24T16:54:14.948Z,4.80
2023-03-24T16:56:42.384Z,2.58
2023-03-24T16:59:10.660Z,7.72
2023-03-24T17:01:45.965Z,3.58
2023-03-24T17:04:19.287Z,3.42
2023-03-24T17:06:53.520Z,3.83
2023-03-24T17:09:21.248Z,3.78
2023-03-24T17:11:52.798Z,2.70
2023-03-24T17:14:20.275Z,4.35
2023-03-24T17:16:49.085Z,3.58
2023-03-24T17:19:18.142Z,2.33
2023-03-24T17:21:47.473Z,3.15
2023-03-24T17:24:14.826Z,3.00
2023-03-24T17:26:42.396Z,1.58
2023-03-24T17:29:11.328Z,2.88
2023-03-24T17:31:38.860Z,3.35
2023-03-24T17:34:20.636Z,2.75
2023-03-24T17:36:50.569Z,1.73
2023-03-24T17:39:18.681Z,3.28
2023-03-24T17:41:46.108Z,3.08
2023-03-24T17:44:13.660Z,4.63
2023-03-24T17:46:41.336Z,3.33
2023-03-24T17:49:08.808Z,1.08
2023-03-24T17:51:36.241Z,1.85
2023-03-24T17:54:04.184Z,2.92
2023-03-24T17:56:32.010Z,3.42
2023-03-24T17:58:59.327Z,1.40
2023-03-24T18:01:29.460Z,2.30
2023-03-24T18:03:57.736Z,2.35
2023-03-24T18:06:27.188Z,1.20
2023-03-24T18:08:54.729Z,2.75
2023-03-24T18:11:22.083Z,4.15
2023-03-24T18:13:49.502Z,1.42
2023-03-24T18:16:21.891Z,1.67
2023-03-24T18:18:50.240Z,2.65
2023-03-24T18:21:17.933Z,2.00
2023-03-24T18:23:46.656Z,2.80
2023-03-24T18:26:14.818Z,2.92
2023-03-24T18:28:42.819Z,1.67
2023-03-24T18:31:12.804Z,1.27
2023-03-24T18:33:42.714Z,1.60
2023-03-24T18:36:10.629Z,1.40
2023-03-24T18:38:38.238Z,1.70
2023-03-24T18:41:06.983Z,2.35
2023-03-24T18:43:37.566Z,1.58
2023-03-24T18:46:09.342Z,2.42
2023-03-24T18:48:41.866Z,3.70
2023-03-24T18:51:09.563Z,2.10
2023-03-24T18:53:37.436Z,2.53
2023-03-24T18:56:06.007Z,2.50
2023-03-24T18:58:33.804Z,2.33
2023-03-24T19:01:09.123Z,3.15
2023-03-24T19:03:38.425Z,2.60
2023-03-24T19:06:07.163Z,4.60
2023-03-24T19:08:37.878Z,2.15
2023-03-24T19:11:05.618Z,2.55
2023-03-24T19:13:33.167Z,2.45
2023-03-24T19:16:00.587Z,2.85
2023-03-24T19:18:27.893Z,2.05
2023-03-24T19:20:56.141Z,2.85
2023-03-24T19:23:24.532Z,3.00
2023-03-24T19:25:55.173Z,3.35
2023-03-24T19:28:23.298Z,2.00
2023-03-24T19:30:50.918Z,2.08
2023-03-24T19:33:18.339Z,1.80
2023-03-24T19:35:49.816Z,3.08
2023-03-24T19:38:18.017Z,2.00
2023-03-24T19:40:45.584Z,2.97
2023-03-24T19:43:12.934Z,1.50
2023-03-24T19:45:43.100Z,1.65
2023-03-24T19:48:10.870Z,2.30
2023-03-24T19:50:38.398Z,1.13
2023-03-24T19:53:05.875Z,1.55
2023-03-24T19:55:33.624Z,3.10
2023-03-24T19:58:01.057Z,5.97
2023-03-24T20:00:28.368Z,4.65
2023-03-24T20:02:55.844Z,2.95
2023-03-24T20:05:23.262Z,4.00
2023-03-24T20:07:53.667Z,2.58
2023-03-24T20:10:21.811Z,2.78
2023-03-24T20:12:49.166Z,4.45
2023-03-24T20:15:16.612Z,2.70
2023-03-24T20:17:44.140Z,3.45
2023-03-24T20:20:15.158Z,4.05
2023-03-24T20:22:45.607Z,3.83
2023-03-24T20:25:14.360Z,2.28
2023-03-24T20:27:42.039Z,1.95
2023-03-24T20:30:10.293Z,4.32
2023-03-24T20:32:37.755Z,1.25
2023-03-24T20:35:05.872Z,3.10
2023-03-24T20:37:35.678Z,1.30
2023-03-24T20:40:05.327Z,2.35
2023-03-24T20:42:33.273Z,2.00
2023-03-24T20:45:00.792Z,3.00
2023-03-24T20:47:28.179Z,3.08
2023-03-24T20:49:55.616Z,1.58
2023-03-24T20:52:24.239Z,2.58
2023-03-24T20:54:52.013Z,3.72
2023-03-24T20:57:19.464Z,4.28
2023-03-24T20:59:48.142Z,7.28
2023-03-24T21:02:15.972Z,3.22
2023-03-24T21:04:43.629Z,1.67
2023-03-24T21:07:11.171Z,2.85
2023-03-24T21:09:38.695Z,3.42
2023-03-24T21:12:06.629Z,3.13
2023-03-24T21:14:34.132Z,2.83
2023-03-24T21:17:01.740Z,4.45
2023-03-24T21:19:29.188Z,2.25
2023-03-24T21:21:56.529Z,1.63
2023-03-24T21:24:24.359Z,1.92
2023-03-24T21:26:53.918Z,3.47
2023-03-24T21:29:22.631Z,1.98
2023-03-24T21:31:50.243Z,2.97
2023-03-24T21:34:17.600Z,4.28
2023-03-24T21:36:46.065Z,1.80
2023-03-24T21:39:13.444Z,2.17
2023-03-24T21:41:40.822Z,4.68
2023-03-24T21:44:09.526Z,2.42
2023-03-24T21:46:37.167Z,2.47
2023-03-24T21:49:05.141Z,4.45
2023-03-24T21:51:36.932Z,3.70
2023-03-24T21:54:06.555Z,3.03
2023-03-24T21:56:34.699Z,5.55
2023-03-24T21:59:02.213Z,4.75
2023-03-24T22:01:31.081Z,3.47
2023-03-24T22:03:59.232Z,2.33
2023-03-24T22:06:28.750Z,2.70
2023-03-24T22:08:58.510Z,2.72
2023-03-24T22:11:26.257Z,2.85
2023-03-24T22:13:53.841Z,2.35
2023-03-24T22:16:21.344Z,3.00
2023-03-24T22:18:48.727Z,2.83
2023-03-24T22:21:16.042Z,2.70
2023-03-24T22:23:43.489Z,2.50
2023-03-24T22:26:14.989Z,2.40
2023-03-24T22:28:42.619Z,4.45
2023-03-24T22:31:14.581Z,3.40
2023-03-24T22:33:42.232Z,3.38
2023-03-24T22:36:09.943Z,3.90
2023-03-24T22:38:37.491Z,2.90
2023-03-24T22:41:06.566Z,3.55
2023-03-24T22:43:35.023Z,3.95
2023-03-24T22:46:03.177Z,3.85
2023-03-24T22:48:30.776Z,5.05
2023-03-24T22:50:58.156Z,1.83
2023-03-24T22:53:25.584Z,4.95
2023-03-24T22:55:53.184Z,1.67
2023-03-24T22:58:21.317Z,3.88
2023-03-24T23:00:49.380Z,2.92
2023-03-24T23:03:16.852Z,2.15
2023-03-24T23:05:45.735Z,4.25
2023-03-24T23:08:15.268Z,2.10
2023-03-24T23:10:43.869Z,2.38
2023-03-24T23:13:11.660Z,3.75
2023-03-24T23:15:39.738Z,4.25
2023-03-24T23:18:07.272Z,2.55
2023-03-24T23:20:34.753Z,3.08
2023-03-24T23:23:03.786Z,3.67
2023-03-24T23:25:34.591Z,2.50
2023-03-24T23:28:01.989Z,1.65
2023-03-24T23:30:29.316Z,2.42
2023-03-24T23:32:57.509Z,3.60
2023-03-24T23:35:24.964Z,4.97
2023-03-24T23:37:52.542Z,3.33
2023-03-24T23:40:19.940Z,5.22
2023-03-24T23:42:48.010Z,3.03
2023-03-24T23:45:18.047Z,3.60
2023-03-24T23:47:50.435Z,3.95
2023-03-24T23:50:18.713Z,2.42
2023-03-24T23:52:46.060Z,4.80
2023-03-24T23:55:14.388Z,4.25
2023-03-24T23:57:42.351Z,2.75
